Time;durP1;ratioP1;P1;durP2;ratioP2;P2;SDS_P1;SDS_P2;PMS_P1;PMS_P2;Temp;Humidity;BMP_temperature;BMP_pressure;BME280_temperature;BME280_humidity;BME280_pressure;Samples;Min_cycle;Max_cycle;Signal;HPM_P1;HPM_P2
2023/08/03 00:00:35;;;;;;;6.93;2.90;;;15.80;99.90;;;;;;5000250;28;20218;-78
2023/08/03 00:03:06;;;;;;;8.65;2.80;;;15.80;99.90;;;;;;5017178;28;20265;-79
2023/08/03 00:05:31;;;;;;;7.93;2.88;;;15.90;99.90;;;;;;5016543;28;20191;-78
2023/08/03 00:07:57;;;;;;;5.07;2.40;;;15.80;99.90;;;;;;5018739;28;20175;-79
2023/08/03 00:10:23;;;;;;;2.80;2.30;;;15.90;99.90;;;;;;5018762;28;20252;-78
2023/08/03 00:12:50;;;;;;;4.85;2.33;;;15.90;99.90;;;;;;5018553;28;20225;-79
2023/08/03 00:15:16;;;;;;;7.45;2.80;;;15.90;99.90;;;;;;5017207;28;20183;-79
2023/08/03 00:17:43;;;;;;;4.18;2.50;;;16.00;99.90;;;;;;5035946;28;20191;-79
2023/08/03 00:20:09;;;;;;;5.45;2.22;;;16.00;99.90;;;;;;5008568;28;20191;-78
2023/08/03 00:22:35;;;;;;;4.57;2.25;;;16.10;99.90;;;;;;5014424;28;20183;-79
2023/08/03 00:25:01;;;;;;;4.32;1.90;;;16.10;99.90;;;;;;5017090;28;20211;-78
2023/08/03 00:27:28;;;;;;;5.00;2.17;;;16.10;99.90;;;;;;5018452;28;20195;-79
2023/08/03 00:29:54;;;;;;;2.70;2.13;;;16.10;99.90;;;;;;5018631;28;20189;-79
2023/08/03 00:32:20;;;;;;;3.33;2.20;;;16.10;99.90;;;;;;5018964;28;20159;-79
2023/08/03 00:34:46;;;;;;;3.47;2.30;;;16.10;99.90;;;;;;5018297;28;20535;-80
2023/08/03 00:37:13;;;;;;;4.88;2.20;;;16.00;99.90;;;;;;5016762;28;20222;-79
2023/08/03 00:39:39;;;;;;;3.10;1.90;;;16.00;99.90;;;;;;5019136;28;20197;-80
2023/08/03 00:42:06;;;;;;;6.95;2.65;;;16.00;99.90;;;;;;5018902;28;20179;-80
2023/08/03 00:44:32;;;;;;;3.22;2.00;;;16.00;99.90;;;;;;5018065;28;20215;-79
2023/08/03 00:46:59;;;;;;;3.22;2.33;;;15.90;99.90;;;;;;5018391;28;20199;-79
2023/08/03 00:49:28;;;;;;;3.58;1.90;;;15.90;99.90;;;;;;5017958;28;20175;-79
2023/08/03 00:51:55;;;;;;;2.65;1.98;;;15.90;99.90;;;;;;5018288;28;20183;-78
2023/08/03 00:54:21;;;;;;;4.70;2.05;;;15.90;99.90;;;;;;5033889;28;20194;-79
2023/08/03 00:56:47;;;;;;;3.45;2.20;;;15.80;99.90;;;;;;5035835;28;20190;-79
2023/08/03 00:59:13;;;;;;;3.95;2.22;;;15.80;99.90;;;;;;5036961;28;20178;-79
2023/08/03 01:01:41;;;;;;;3.58;1.90;;;15.70;99.90;;;;;;5018908;28;20191;-79
2023/08/03 01:04:07;;;;;;;3.65;2.17;;;15.80;99.90;;;;;;5017702;28;20194;-79
2023/08/03 01:06:33;;;;;;;3.50;2.05;;;15.80;99.90;;;;;;5017259;28;20218;-79
2023/08/03 01:09:00;;;;;;;3.03;1.80;;;15.90;99.90;;;;;;5018154;28;20644;-79
2023/08/03 01:11:29;;;;;;;2.85;2.00;;;15.90;99.90;;;;;;5010048;28;20562;-80
2023/08/03 01:13:56;;;;;;;3.38;2.03;;;15.90;99.90;;;;;;5036131;28;20170;-79
2023/08/03 01:16:25;;;;;;;4.82;2.08;;;16.00;99.90;;;;;;5012765;28;20218;-79
2023/08/03 01:18:51;;;;;;;4.97;2.03;;;15.90;99.90;;;;;;5017081;28;20549;-79
2023/08/03 01:21:22;;;;;;;5.30;2.10;;;15.90;99.90;;;;;;5005418;28;20278;-79
2023/08/03 01:23:48;;;;;;;4.47;2.17;;;15.90;99.90;;;;;;5016758;28;20210;-79
2023/08/03 01:26:14;;;;;;;3.95;2.60;;;15.80;99.90;;;;;;5014821;28;20210;-79
2023/08/03 01:28:40;;;;;;;2.65;2.30;;;15.70;99.90;;;;;;5017266;28;20171;-79
2023/08/03 01:31:06;;;;;;;3.08;2.50;;;15.70;99.90;;;;;;5017365;28;20232;-80
2023/08/03 01:33:32;;;;;;;3.38;2.03;;;15.60;99.90;;;;;;5017193;28;20557;-80
2023/08/03 01:35:58;;;;;;;5.55;2.55;;;15.60;99.90;;;;;;5014766;28;20219;-79
2023/08/03 01:38:23;;;;;;;3.78;2.60;;;15.60;99.90;;;;;;5034921;28;20175;-79
2023/08/03 01:40:49;;;;;;;3.00;2.10;;;15.60;99.90;;;;;;5016528;28;20666;-79
2023/08/03 01:43:15;;;;;;;3.08;2.15;;;15.60;99.90;;;;;;5017390;28;20203;-79
2023/08/03 01:45:41;;;;;;;2.60;2.25;;;15.60;99.90;;;;;;5011970;28;20183;-80
2023/08/03 01:48:07;;;;;;;2.35;2.10;;;15.70;99.90;;;;;;5017328;28;20602;-80
2023/08/03 01:50:33;;;;;;;4.35;2.33;;;15.60;99.90;;;;;;5037373;28;20258;-79
2023/08/03 01:52:58;;;;;;;2.20;2.00;;;15.60;99.90;;;;;;5022510;28;20570;-76
2023/08/03 01:55:24;;;;;;;5.78;3.03;;;15.60;99.90;;;;;;5017462;28;20175;-79
2023/08/03 01:57:50;;;;;;;2.63;2.42;;;15.50;99.90;;;;;;5035446;28;20179;-78
2023/08/03 02:00:16;;;;;;;2.67;2.30;;;15.50;99.90;;;;;;5035024;28;20183;-78
2023/08/03 02:02:41;;;;;;;2.47;2.17;;;15.50;99.90;;;;;;5037571;28;20204;-77
2023/08/03 02:05:07;;;;;;;3.38;2.28;;;15.50;99.90;;;;;;5017585;28;20684;-79
2023/08/03 02:07:53;;;;;;;6.00;2.17;;;15.40;99.90;;;;;;5010598;28;20569;-77
2023/08/03 02:10:20;;;;;;;4.05;2.33;;;15.40;99.90;;;;;;5035266;28;20183;-78
2023/08/03 02:12:46;;;;;;;3.25;2.40;;;15.40;99.90;;;;;;5019321;28;20648;-77
2023/08/03 02:15:13;;;;;;;4.47;2.50;;;15.40;99.90;;;;;;5011957;28;20186;-77
2023/08/03 02:17:40;;;;;;;5.03;2.70;;;15.40;99.90;;;;;;5017192;28;20196;-78
2023/08/03 02:20:07;;;;;;;3.70;3.03;;;15.40;99.90;;;;;;5005730;28;20182;-79
2023/08/03 02:22:32;;;;;;;4.97;3.00;;;15.40;99.90;;;;;;5018911;28;20190;-78
2023/08/03 02:24:58;;;;;;;7.70;3.50;;;15.40;99.90;;;;;;5019109;28;20206;-78
2023/08/03 02:27:24;;;;;;;5.25;3.05;;;15.40;99.90;;;;;;5036825;28;20193;-78
2023/08/03 02:29:49;;;;;;;7.00;3.60;;;15.40;99.90;;;;;;5017773;28;20178;-79
2023/08/03 02:32:15;;;;;;;10.20;3.63;;;15.40;99.90;;;;;;5037138;28;20164;-78
2023/08/03 02:34:41;;;;;;;6.45;3.40;;;15.30;99.90;;;;;;5034417;28;20185;-79
2023/08/03 02:37:06;;;;;;;8.85;3.17;;;15.30;99.90;;;;;;5036138;28;20245;-78
2023/08/03 02:39:32;;;;;;;10.27;3.85;;;15.30;99.90;;;;;;5018557;28;20183;-78
2023/08/03 02:41:58;;;;;;;5.00;3.22;;;15.30;99.90;;;;;;5018431;28;20187;-78
2023/08/03 02:44:24;;;;;;;4.95;3.30;;;15.20;99.90;;;;;;5018467;28;20202;-78
2023/08/03 02:46:49;;;;;;;5.30;3.33;;;15.20;99.90;;;;;;5035417;28;20203;-79
2023/08/03 02:49:15;;;;;;;10.38;3.08;;;15.20;99.90;;;;;;5035048;28;20198;-77
2023/08/03 02:51:44;;;;;;;10.75;3.55;;;15.20;99.90;;;;;;5034527;28;20179;-78
2023/08/03 02:54:10;;;;;;;8.52;3.58;;;15.20;99.90;;;;;;5018498;28;20187;-78
2023/08/03 02:56:35;;;;;;;4.03;3.30;;;15.20;99.90;;;;;;5017506;28;20214;-78
2023/08/03 02:59:01;;;;;;;6.50;3.60;;;15.10;99.90;;;;;;5017908;28;20233;-77
2023/08/03 03:01:27;;;;;;;4.80;3.35;;;15.20;99.90;;;;;;5017335;28;20233;-78
2023/08/03 03:03:52;;;;;;;4.68;3.60;;;15.10;99.90;;;;;;5036080;28;20191;-76
2023/08/03 03:06:18;;;;;;;7.80;3.88;;;15.10;99.90;;;;;;5007802;28;20730;-79
2023/08/03 03:08:44;;;;;;;8.80;3.65;;;15.10;99.90;;;;;;5018009;28;20215;-77
2023/08/03 03:11:09;;;;;;;10.02;4.20;;;15.10;99.90;;;;;;5017747;28;20258;-78
2023/08/03 03:13:35;;;;;;;6.90;4.10;;;15.10;99.90;;;;;;5035852;28;20258;-77
2023/08/03 03:16:01;;;;;;;7.28;4.22;;;15.10;99.90;;;;;;5017170;28;20278;-77
2023/08/03 03:18:29;;;;;;;4.85;4.03;;;15.00;99.90;;;;;;5035676;28;20183;-78
2023/08/03 03:20:55;;;;;;;7.35;4.45;;;15.00;99.90;;;;;;5034711;28;20178;-79
2023/08/03 03:23:22;;;;;;;10.73;4.88;;;15.10;99.90;;;;;;5034024;28;20209;-77
2023/08/03 03:25:48;;;;;;;7.80;4.95;;;15.00;99.90;;;;;;5013142;28;20211;-78
2023/08/03 03:28:14;;;;;;;8.10;4.70;;;15.00;99.90;;;;;;5013842;28;20179;-77
2023/08/03 03:30:40;;;;;;;10.88;4.90;;;15.00;99.90;;;;;;4997613;28;20641;-77
2023/08/03 03:33:06;;;;;;;8.55;5.13;;;15.00;99.90;;;;;;5015145;28;20168;-77
2023/08/03 03:35:31;;;;;;;11.43;4.70;;;15.00;99.90;;;;;;5014646;28;20224;-77
2023/08/03 03:37:57;;;;;;;8.70;5.03;;;15.00;99.90;;;;;;5034725;28;20527;-77
2023/08/03 03:40:23;;;;;;;9.77;4.70;;;15.00;99.90;;;;;;5033480;28;20233;-77
2023/08/03 03:42:48;;;;;;;11.93;5.25;;;15.00;99.90;;;;;;5017055;28;20598;-78
2023/08/03 03:45:14;;;;;;;12.85;5.65;;;15.00;99.90;;;;;;5034674;28;20225;-77
2023/08/03 03:47:40;;;;;;;11.88;5.38;;;15.00;99.90;;;;;;5033676;28;20260;-77
2023/08/03 03:50:06;;;;;;;11.93;4.55;;;15.10;99.90;;;;;;5016880;28;20190;-78
2023/08/03 03:52:32;;;;;;;9.38;4.20;;;15.10;99.90;;;;;;5033770;28;20240;-77
2023/08/03 03:54:57;;;;;;;6.47;4.20;;;15.20;99.90;;;;;;5015735;28;20561;-78
2023/08/03 03:57:23;;;;;;;4.90;3.58;;;15.30;99.90;;;;;;5015590;28;20203;-77
2023/08/03 03:59:49;;;;;;;4.68;3.70;;;15.30;99.90;;;;;;5033604;28;20538;-77
2023/08/03 04:02:15;;;;;;;4.72;3.75;;;15.30;99.90;;;;;;5016657;28;20262;-77
2023/08/03 04:04:41;;;;;;;5.00;3.67;;;15.30;99.90;;;;;;5016570;28;20313;-77
2023/08/03 04:07:07;;;;;;;3.50;3.20;;;15.30;99.90;;;;;;5010757;28;20206;-78
2023/08/03 04:09:32;;;;;;;7.07;3.22;;;15.40;99.90;;;;;;5029464;28;20194;-77
2023/08/03 04:11:58;;;;;;;7.90;3.97;;;15.40;99.90;;;;;;5012958;28;20218;-78
2023/08/03 04:14:24;;;;;;;3.95;3.05;;;15.40;99.90;;;;;;5015851;28;20222;-77
2023/08/03 04:16:50;;;;;;;3.72;2.80;;;15.40;99.90;;;;;;5016502;28;20230;-77
2023/08/03 04:19:16;;;;;;;3.30;2.88;;;15.40;99.90;;;;;;5016630;28;20186;-77
2023/08/03 04:21:41;;;;;;;9.55;3.28;;;15.40;99.90;;;;;;5015819;28;20179;-77
2023/08/03 04:24:08;;;;;;;4.07;3.05;;;15.40;99.90;;;;;;5032559;28;20318;-77
2023/08/03 04:26:34;;;;;;;4.25;2.60;;;15.40;99.90;;;;;;5014208;28;20278;-78
2023/08/03 04:29:00;;;;;;;6.30;3.15;;;15.40;99.90;;;;;;5033689;28;20225;-78
2023/08/03 04:31:27;;;;;;;5.35;3.05;;;15.40;99.90;;;;;;5011525;28;20191;-78
2023/08/03 04:33:53;;;;;;;4.43;2.55;;;15.30;99.90;;;;;;5016446;28;20182;-78
2023/08/03 04:36:18;;;;;;;5.13;2.63;;;15.40;99.90;;;;;;5005981;28;20334;-79
2023/08/03 04:38:44;;;;;;;5.72;2.78;;;15.40;99.90;;;;;;5016836;28;20191;-79
2023/08/03 04:41:10;;;;;;;4.65;2.67;;;15.50;99.90;;;;;;5012795;28;20182;-79
2023/08/03 04:43:36;;;;;;;3.88;2.38;;;15.50;99.90;;;;;;5030329;28;20207;-79
2023/08/03 04:46:02;;;;;;;4.47;2.63;;;15.60;99.90;;;;;;5021370;28;20198;-78
2023/08/03 04:48:27;;;;;;;6.32;2.50;;;15.70;99.90;;;;;;5035550;28;20190;-78
2023/08/03 04:50:53;;;;;;;3.97;2.45;;;15.70;99.90;;;;;;5020153;28;20211;-79
2023/08/03 04:53:19;;;;;;;4.65;2.80;;;15.70;99.90;;;;;;5015388;28;20191;-79
2023/08/03 04:55:46;;;;;;;3.35;2.42;;;15.70;99.90;;;;;;5033145;28;20178;-80
2023/08/03 04:58:11;;;;;;;3.63;2.55;;;15.70;99.90;;;;;;5014768;28;20591;-79
2023/08/03 05:00:37;;;;;;;4.90;2.83;;;15.70;99.90;;;;;;5021791;28;20269;-78
2023/08/03 05:03:03;;;;;;;5.32;2.50;;;15.70;99.90;;;;;;5035559;28;20327;-78
2023/08/03 05:05:29;;;;;;;2.95;2.40;;;15.80;99.90;;;;;;5018460;28;20239;-78
2023/08/03 05:07:55;;;;;;;2.65;2.42;;;15.80;99.90;;;;;;5019924;28;20183;-78
2023/08/03 05:10:20;;;;;;;3.72;2.63;;;15.80;99.90;;;;;;5026004;28;20254;-78
2023/08/03 05:12:46;;;;;;;6.30;2.63;;;15.90;99.90;;;;;;5030214;28;20178;-78
2023/08/03 05:15:12;;;;;;;4.55;2.65;;;15.90;99.90;;;;;;5034243;28;20266;-78
2023/08/03 05:17:38;;;;;;;3.83;2.55;;;15.80;99.90;;;;;;5031606;28;20280;-77
2023/08/03 05:20:04;;;;;;;4.70;2.67;;;15.90;99.90;;;;;;5017298;28;20183;-78
2023/08/03 05:22:30;;;;;;;4.07;2.40;;;15.90;99.90;;;;;;5040066;28;20193;-79
2023/08/03 05:24:55;;;;;;;6.38;2.58;;;16.00;99.90;;;;;;5035582;28;20207;-78
2023/08/03 05:27:21;;;;;;;4.57;2.30;;;16.10;99.90;;;;;;5041568;28;20213;-79
2023/08/03 05:29:47;;;;;;;3.47;2.28;;;16.10;99.90;;;;;;5026890;28;20706;-77
2023/08/03 05:32:13;;;;;;;3.47;2.22;;;16.10;99.90;;;;;;5030924;28;20194;-78
2023/08/03 05:34:39;;;;;;;3.03;2.13;;;16.20;99.90;;;;;;5046501;28;20463;-78
2023/08/03 05:37:05;;;;;;;5.07;2.25;;;16.20;99.90;;;;;;5019149;28;20214;-77
2023/08/03 05:39:31;;;;;;;3.75;2.10;;;16.30;99.90;;;;;;5032271;28;20225;-77
2023/08/03 05:41:59;;;;;;;3.03;2.03;;;16.30;99.90;;;;;;5026833;28;20210;-77
2023/08/03 05:44:25;;;;;;;3.83;2.05;;;16.30;99.90;;;;;;5024856;28;20202;-76
2023/08/03 05:46:50;;;;;;;4.97;2.95;;;16.30;99.90;;;;;;5007057;28;20206;-76
2023/08/03 05:49:16;;;;;;;3.83;2.13;;;16.30;99.90;;;;;;5017949;28;20183;-76
2023/08/03 05:51:42;;;;;;;2.00;1.90;;;16.30;99.90;;;;;;5041645;28;20673;-77
2023/08/03 05:54:18;;;;;;;2.30;2.10;;;16.20;99.90;;;;;;5020574;28;20556;-76
2023/08/03 05:56:45;;;;;;;2.30;2.10;;;16.20;99.90;;;;;;5015024;28;20207;-77
2023/08/03 05:59:20;;;;;;;2.65;2.05;;;16.30;99.90;;;;;;5017992;28;20194;-77
2023/08/03 06:01:48;;;;;;;2.88;2.00;;;16.30;99.90;;;;;;5030097;28;20192;-77
2023/08/03 06:04:16;;;;;;;2.22;1.90;;;16.30;99.90;;;;;;5048384;28;20202;-78
2023/08/03 06:06:42;;;;;;;2.08;1.98;;;16.30;99.90;;;;;;5018223;28;20213;-76
2023/08/03 06:09:11;;;;;;;3.28;2.17;;;16.20;99.90;;;;;;5027430;28;20175;-76
2023/08/03 06:11:38;;;;;;;2.83;2.22;;;16.20;99.90;;;;;;5038410;28;20178;-77
2023/08/03 06:14:11;;;;;;;2.70;2.10;;;16.20;99.90;;;;;;5028675;28;20685;-76
2023/08/03 06:16:37;;;;;;;2.97;2.00;;;16.30;99.90;;;;;;5014852;28;20239;-76
2023/08/03 06:19:05;;;;;;;2.10;2.00;;;16.30;99.90;;;;;;5050921;28;20189;-77
2023/08/03 06:21:30;;;;;;;2.08;1.95;;;16.40;99.90;;;;;;5027235;28;20182;-77
2023/08/03 06:23:58;;;;;;;6.85;2.00;;;16.40;99.90;;;;;;5047486;28;20540;-77
2023/08/03 06:26:25;;;;;;;3.00;1.92;;;16.40;99.90;;;;;;5024352;28;20690;-77
2023/08/03 06:28:53;;;;;;;3.88;1.90;;;16.50;99.90;;;;;;5015749;28;20193;-76
2023/08/03 06:31:37;;;;;;;4.03;1.85;;;16.50;99.90;;;;;;5030920;28;20273;-77
2023/08/03 06:34:04;;;;;;;2.00;1.80;;;16.70;99.90;;;;;;5028012;28;20175;-76
2023/08/03 06:36:30;;;;;;;3.72;1.90;;;16.80;99.90;;;;;;5033731;28;20711;-76
2023/08/03 06:38:57;;;;;;;2.35;1.70;;;16.90;99.90;;;;;;5034804;28;20186;-78
2023/08/03 06:41:27;;;;;;;1.80;1.70;;;16.90;99.90;;;;;;5023890;28;20174;-77
2023/08/03 06:43:54;;;;;;;1.83;1.73;;;16.90;99.90;;;;;;5048223;28;20207;-76
2023/08/03 06:46:20;;;;;;;3.55;1.70;;;16.80;99.90;;;;;;5035974;28;20282;-77
2023/08/03 06:48:46;;;;;;;2.05;1.95;;;16.70;99.90;;;;;;5026270;28;20618;-77
2023/08/03 06:51:12;;;;;;;3.58;1.73;;;16.60;99.90;;;;;;5037567;28;20183;-77
2023/08/03 06:53:38;;;;;;;2.15;1.70;;;16.60;99.90;;;;;;5029609;28;20190;-77
2023/08/03 06:56:04;;;;;;;3.20;1.85;;;16.50;99.90;;;;;;5028365;28;20203;-78
2023/08/03 06:58:29;;;;;;;2.70;2.15;;;16.40;99.90;;;;;;5023492;28;20190;-77
2023/08/03 07:00:55;;;;;;;2.15;1.92;;;16.20;99.90;;;;;;5012596;28;20653;-78
2023/08/03 07:03:21;;;;;;;4.25;2.30;;;16.00;99.90;;;;;;5015338;28;20289;-78
2023/08/03 07:05:47;;;;;;;3.70;2.05;;;15.80;99.90;;;;;;5022399;28;20211;-79
2023/08/03 07:08:13;;;;;;;3.13;2.30;;;15.60;99.90;;;;;;5034125;28;20194;-80
2023/08/03 07:10:38;;;;;;;2.30;2.10;;;15.50;99.90;;;;;;5020398;28;20266;-80
2023/08/03 07:13:05;;;;;;;4.18;2.20;;;15.30;99.90;;;;;;5021148;28;20207;-77
2023/08/03 07:15:34;;;;;;;4.25;2.28;;;15.20;99.90;;;;;;5017004;28;20266;-79
2023/08/03 07:18:04;;;;;;;2.33;2.10;;;15.20;99.90;;;;;;5011868;28;20187;-79
2023/08/03 07:20:31;;;;;;;4.28;2.50;;;15.20;99.90;;;;;;5026007;28;20206;-79
2023/08/03 07:22:57;;;;;;;3.22;2.47;;;15.20;99.90;;;;;;5019549;28;20640;-79
2023/08/03 07:25:24;;;;;;;2.60;2.40;;;15.20;99.90;;;;;;5020559;28;21081;-78
2023/08/03 07:27:53;;;;;;;5.32;2.95;;;15.20;99.90;;;;;;5024773;28;20211;-79
2023/08/03 07:30:19;;;;;;;2.92;2.38;;;15.20;99.90;;;;;;5024316;28;20575;-78
2023/08/03 07:32:46;;;;;;;3.75;2.70;;;15.20;99.90;;;;;;5017208;28;20221;-79
2023/08/03 07:35:12;;;;;;;2.80;2.60;;;15.20;99.90;;;;;;5014755;28;20185;-78
2023/08/03 07:37:38;;;;;;;6.43;2.90;;;15.20;99.90;;;;;;5018247;28;20198;-78
2023/08/03 07:40:04;;;;;;;2.70;2.50;;;15.20;99.90;;;;;;5020511;28;20592;-78
2023/08/03 07:42:30;;;;;;;2.65;2.42;;;15.20;99.90;;;;;;5031610;28;20167;-79
2023/08/03 07:44:56;;;;;;;4.43;2.63;;;15.20;99.90;;;;;;5020997;28;20218;-78
2023/08/03 07:47:22;;;;;;;3.13;2.80;;;15.20;99.90;;;;;;5030551;28;20685;-79
2023/08/03 07:49:48;;;;;;;2.83;2.63;;;15.20;99.90;;;;;;5019389;28;20225;-78
2023/08/03 07:52:13;;;;;;;2.92;2.58;;;15.20;99.90;;;;;;5014250;28;20206;-79
2023/08/03 07:54:39;;;;;;;2.70;2.50;;;15.20;99.90;;;;;;5008280;28;20274;-79
2023/08/03 07:57:05;;;;;;;2.60;2.40;;;15.20;99.90;;;;;;5019961;28;20211;-79
2023/08/03 07:59:31;;;;;;;2.45;2.30;;;15.30;99.90;;;;;;5031398;28;20182;-77
2023/08/03 08:01:58;;;;;;;4.22;2.55;;;15.30;99.90;;;;;;5017225;28;20245;-77
2023/08/03 08:04:24;;;;;;;3.10;2.47;;;15.30;99.90;;;;;;5016460;28;20687;-77
2023/08/03 08:06:50;;;;;;;2.97;2.58;;;15.30;99.90;;;;;;5020438;28;20198;-76
2023/08/03 08:09:16;;;;;;;5.07;2.65;;;15.30;99.90;;;;;;5034857;28;20179;-77
2023/08/03 08:11:41;;;;;;;5.82;3.10;;;15.40;99.90;;;;;;5020634;28;20192;-77
2023/08/03 08:14:07;;;;;;;4.60;3.45;;;15.40;99.90;;;;;;5018949;28;20229;-77
2023/08/03 08:16:33;;;;;;;3.38;3.00;;;15.40;99.90;;;;;;5035594;28;20207;-77
2023/08/03 08:18:59;;;;;;;4.63;2.85;;;15.40;99.90;;;;;;5013690;28;20270;-77
2023/08/03 08:21:24;;;;;;;5.05;3.20;;;15.50;99.90;;;;;;5012901;28;20186;-77
2023/08/03 08:23:50;;;;;;;3.65;3.05;;;15.60;99.90;;;;;;5018382;28;20218;-76
2023/08/03 08:26:17;;;;;;;3.50;3.13;;;15.60;99.90;;;;;;5032313;28;20199;-76
2023/08/03 08:28:46;;;;;;;5.38;3.28;;;15.70;99.90;;;;;;5017428;28;20217;-76
2023/08/03 08:31:12;;;;;;;3.45;2.90;;;15.70;99.90;;;;;;5032217;28;20203;-76
2023/08/03 08:33:38;;;;;;;3.33;2.90;;;15.80;99.90;;;;;;5026947;28;20724;-77
2023/08/03 08:36:04;;;;;;;3.35;2.75;;;16.00;99.90;;;;;;5012822;28;20219;-76
2023/08/03 08:38:30;;;;;;;3.33;3.03;;;16.20;99.90;;;;;;5029345;28;20655;-77
2023/08/03 08:41:00;;;;;;;2.67;2.42;;;16.50;99.90;;;;;;5033424;28;20185;-77
2023/08/03 08:43:27;;;;;;;2.97;2.40;;;16.60;99.90;;;;;;5016789;28;20233;-77
2023/08/03 08:45:53;;;;;;;2.92;2.30;;;16.60;99.90;;;;;;5034297;28;20195;-76
2023/08/03 08:48:19;;;;;;;2.50;2.30;;;16.70;99.90;;;;;;5015737;28;20207;-76
2023/08/03 08:50:46;;;;;;;4.38;2.25;;;16.90;99.90;;;;;;5033461;28;20155;-78
2023/08/03 08:53:14;;;;;;;3.83;2.65;;;17.20;99.90;;;;;;5033806;28;20590;-77
2023/08/03 08:55:40;;;;;;;3.67;2.47;;;17.50;99.90;;;;;;5023526;28;20564;-77
2023/08/03 08:58:05;;;;;;;3.60;2.83;;;17.40;99.90;;;;;;5045450;28;20182;-76
2023/08/03 09:00:45;;;;;;;4.25;2.30;;;17.60;99.90;;;;;;5021463;28;20648;-77
2023/08/03 09:03:12;;;;;;;4.25;3.00;;;17.80;99.90;;;;;;5021301;28;20309;-76
2023/08/03 09:05:39;;;;;;;6.20;2.60;;;17.90;99.90;;;;;;5018713;28;20186;-76
2023/08/03 09:08:16;;;;;;;4.25;2.83;;;18.00;99.90;;;;;;5023077;28;20183;-76
2023/08/03 09:10:49;;;;;;;5.18;2.70;;;18.00;99.90;;;;;;5027536;28;20174;-76
2023/08/03 09:13:34;;;;;;;5.25;2.72;;;17.90;99.90;;;;;;5026663;28;20187;-76
2023/08/03 09:16:00;;;;;;;4.32;2.63;;;17.80;99.90;;;;;;5041053;28;20194;-76
2023/08/03 09:18:27;;;;;;;2.85;2.30;;;17.60;99.90;;;;;;5012521;28;20607;-76
2023/08/03 09:21:32;;;;;;;3.33;2.63;;;17.40;99.90;;;;;;5023318;28;20234;-78
2023/08/03 09:23:59;;;;;;;2.67;2.30;;;17.40;99.90;;;;;;4923404;29;20206;-76
2023/08/03 09:26:26;;;;;;;4.95;2.20;;;17.40;99.90;;;;;;4919042;29;20206;-76
2023/08/03 09:28:51;;;;;;;3.97;2.53;;;17.30;99.90;;;;;;4973100;28;20286;-76
2023/08/03 09:31:25;;;;;;;7.60;2.38;;;17.30;99.90;;;;;;5034970;28;20310;-76
2023/08/03 09:33:55;;;;;;;3.72;2.58;;;17.20;99.90;;;;;;5025244;28;20193;-76
2023/08/03 09:36:21;;;;;;;3.97;2.60;;;17.00;99.90;;;;;;5016965;28;20215;-76
2023/08/03 09:38:47;;;;;;;6.82;2.42;;;16.90;99.90;;;;;;5020100;28;20214;-76
2023/08/03 09:41:13;;;;;;;4.85;2.30;;;16.90;99.90;;;;;;5027034;28;20648;-76
2023/08/03 09:43:40;;;;;;;3.25;2.40;;;17.00;99.90;;;;;;5022685;28;20214;-76
2023/08/03 09:46:06;;;;;;;4.30;2.53;;;17.10;99.90;;;;;;5030576;28;20214;-77
2023/08/03 09:48:32;;;;;;;3.60;2.30;;;17.10;99.90;;;;;;5032251;28;20539;-76
2023/08/03 09:50:59;;;;;;;3.53;2.13;;;17.10;99.90;;;;;;5036493;28;20190;-76
2023/08/03 09:53:29;;;;;;;6.63;2.58;;;17.10;99.90;;;;;;5024612;28;20293;-76
2023/08/03 09:56:00;;;;;;;4.18;2.60;;;17.10;99.90;;;;;;5052615;28;20283;-76
2023/08/03 09:58:32;;;;;;;4.78;2.67;;;17.10;99.90;;;;;;5018892;28;20557;-76
2023/08/03 10:01:03;;;;;;;5.03;2.30;;;17.20;99.90;;;;;;5035470;28;20179;-77
2023/08/03 10:03:31;;;;;;;3.78;2.10;;;17.20;99.90;;;;;;5032250;28;20716;-76
2023/08/03 10:06:10;;;;;;;7.85;2.60;;;17.30;99.90;;;;;;5037600;28;20282;-75
2023/08/03 10:08:45;;;;;;;4.43;2.40;;;17.50;99.90;;;;;;5019059;28;20623;-77
2023/08/03 10:11:12;;;;;;;3.47;2.38;;;17.80;99.90;;;;;;5019308;28;20186;-78
2023/08/03 10:13:44;;;;;;;4.00;2.30;;;17.90;99.90;;;;;;5052550;28;20177;-77
2023/08/03 10:16:10;;;;;;;3.10;2.30;;;17.90;99.90;;;;;;5020886;28;20206;-78
2023/08/03 10:18:37;;;;;;;3.53;2.30;;;17.70;99.90;;;;;;5031518;28;20179;-76
2023/08/03 10:21:04;;;;;;;3.55;2.10;;;17.60;99.90;;;;;;5029255;28;20560;-77
2023/08/03 10:23:30;;;;;;;4.60;2.55;;;17.60;99.90;;;;;;5056745;28;20272;-77
2023/08/03 10:26:00;;;;;;;4.60;2.40;;;17.70;99.90;;;;;;5024150;28;20657;-77
2023/08/03 10:28:38;;;;;;;3.80;2.30;;;17.70;99.90;;;;;;5050602;28;20242;-77
2023/08/03 10:31:18;;;;;;;3.72;2.25;;;17.70;99.90;;;;;;5021693;28;20281;-77
2023/08/03 10:33:50;;;;;;;4.15;2.28;;;17.70;99.90;;;;;;5037874;28;20189;-77
2023/08/03 10:36:27;;;;;;;4.38;2.00;;;17.70;99.90;;;;;;5033951;28;20241;-77
2023/08/03 10:38:53;;;;;;;4.03;2.40;;;17.70;99.90;;;;;;5044639;28;20189;-76
2023/08/03 10:41:38;;;;;;;2.60;2.00;;;17.70;99.90;;;;;;5053372;28;20175;-75
2023/08/03 10:44:09;;;;;;;2.88;2.30;;;17.70;99.90;;;;;;5049056;28;20195;-75
2023/08/03 10:46:41;;;;;;;3.35;2.25;;;17.60;99.90;;;;;;5015715;28;20206;-74
2023/08/03 10:49:20;;;;;;;2.92;2.45;;;17.70;99.90;;;;;;5023418;28;20178;-75
2023/08/03 10:52:14;;;;;;;3.13;2.35;;;17.80;99.90;;;;;;5033376;28;20170;-76
2023/08/03 10:54:39;;;;;;;2.63;2.42;;;17.90;99.90;;;;;;5024360;28;20175;-75
2023/08/03 10:57:09;;;;;;;5.40;2.55;;;18.10;99.90;;;;;;5023195;28;20211;-76
2023/08/03 10:59:47;;;;;;;3.75;2.75;;;18.20;99.90;;;;;;5014710;28;20187;-76
2023/08/03 11:02:22;;;;;;;4.55;2.20;;;18.20;99.90;;;;;;5006096;28;20735;-75
2023/08/03 11:04:55;;;;;;;2.65;2.45;;;18.10;99.90;;;;;;5028364;28;20238;-76
2023/08/03 11:07:33;;;;;;;3.65;2.58;;;17.90;99.90;;;;;;5013158;28;20207;-75
2023/08/03 11:10:01;;;;;;;4.18;2.72;;;17.90;99.90;;;;;;5017655;28;20182;-75
2023/08/03 11:12:27;;;;;;;3.65;2.40;;;17.80;99.90;;;;;;5024332;28;20179;-76
2023/08/03 11:14:55;;;;;;;3.10;2.25;;;17.80;99.90;;;;;;5015251;28;20191;-75
2023/08/03 11:17:26;;;;;;;3.58;2.40;;;17.80;99.90;;;;;;5030024;28;20210;-75
2023/08/03 11:19:53;;;;;;;4.63;2.70;;;17.90;99.90;;;;;;5034193;28;20202;-75
2023/08/03 11:22:23;;;;;;;2.67;2.33;;;18.20;99.90;;;;;;5016129;28;20187;-74
2023/08/03 11:24:56;;;;;;;3.70;2.22;;;18.20;99.90;;;;;;5016338;28;20543;-75
2023/08/03 11:27:23;;;;;;;3.45;2.30;;;18.20;99.90;;;;;;5005936;28;20321;-78
2023/08/03 11:29:50;;;;;;;4.63;2.67;;;18.20;99.90;;;;;;5010983;28;20580;-75
2023/08/03 11:32:30;;;;;;;7.78;2.80;;;18.20;99.90;;;;;;5012702;28;20180;-77
2023/08/03 11:34:59;;;;;;;4.60;2.65;;;18.20;99.90;;;;;;5022582;28;20221;-76
2023/08/03 11:37:33;;;;;;;5.15;2.70;;;18.20;99.90;;;;;;5015803;28;20202;-76
2023/08/03 11:40:03;;;;;;;3.50;2.28;;;18.10;99.90;;;;;;5027142;28;20720;-76
2023/08/03 11:42:30;;;;;;;4.07;2.80;;;18.00;99.90;;;;;;5017364;28;20179;-77
2023/08/03 11:44:56;;;;;;;3.90;2.55;;;17.90;99.90;;;;;;5013537;28;20199;-77
2023/08/03 11:47:21;;;;;;;3.75;2.83;;;17.90;99.90;;;;;;5037106;28;20225;-75
2023/08/03 11:49:48;;;;;;;5.00;2.65;;;17.90;99.90;;;;;;5016698;28;20187;-76
2023/08/03 11:52:18;;;;;;;3.40;3.10;;;17.90;99.90;;;;;;5034305;28;20186;-75
2023/08/03 11:54:44;;;;;;;6.43;2.95;;;17.90;99.90;;;;;;5014797;28;20187;-76
2023/08/03 12:00:14;;;;;;;4.38;2.70;;;17.80;99.90;;;;;;4963672;28;20237;-76
2023/08/03 12:02:45;;;;;;;5.40;3.00;;;17.80;99.90;;;;;;4956158;28;20193;-76
2023/08/03 12:05:11;;;;;;;7.65;3.20;;;17.80;99.90;;;;;;5004981;28;20234;-76
2023/08/03 12:07:38;;;;;;;9.60;2.97;;;17.90;99.90;;;;;;5025727;28;20225;-75
2023/08/03 12:10:13;;;;;;;6.53;2.63;;;17.90;99.90;;;;;;5039393;28;20330;-76
2023/08/03 12:12:42;;;;;;;5.68;3.03;;;17.90;99.90;;;;;;5007342;28;20189;-76
2023/08/03 12:15:09;;;;;;;4.80;2.78;;;17.90;99.90;;;;;;5005572;28;20304;-75
2023/08/03 12:17:35;;;;;;;5.35;2.72;;;18.00;99.90;;;;;;5016567;28;20265;-76
2023/08/03 12:20:10;;;;;;;3.90;2.50;;;18.10;99.90;;;;;;5020273;28;20182;-76
2023/08/03 12:22:44;;;;;;;6.28;3.13;;;18.20;99.90;;;;;;5020121;28;20178;-76
2023/08/03 12:25:11;;;;;;;4.70;2.50;;;18.30;99.90;;;;;;4997439;28;20203;-76
2023/08/03 12:27:37;;;;;;;5.93;2.78;;;18.30;99.90;;;;;;5013163;28;20203;-75
2023/08/03 12:30:03;;;;;;;10.95;3.10;;;18.40;99.90;;;;;;5004343;28;20180;-76
2023/08/03 12:32:28;;;;;;;9.60;3.35;;;18.60;99.90;;;;;;5034775;28;20182;-76
2023/08/03 12:34:54;;;;;;;5.03;2.63;;;18.90;99.90;;;;;;5027721;28;20229;-76
2023/08/03 12:37:20;;;;;;;3.25;2.50;;;19.10;99.90;;;;;;5036462;28;20712;-77
2023/08/03 12:39:45;;;;;;;4.72;2.70;;;19.20;99.90;;;;;;5035333;28;20258;-76
2023/08/03 12:42:11;;;;;;;6.28;2.47;;;19.10;99.90;;;;;;5017590;28;20255;-76
2023/08/03 12:44:37;;;;;;;4.93;2.90;;;19.10;99.90;;;;;;5024450;28;20211;-76
2023/08/03 12:47:03;;;;;;;5.18;2.45;;;19.10;99.90;;;;;;5042428;28;20204;-75
2023/08/03 12:49:28;;;;;;;5.10;2.17;;;19.00;99.90;;;;;;5022139;28;20211;-76